Time;durP1;ratioP1;P1;durP2;ratioP2;P2;SDS_P1;SDS_P2;PMS_P1;PMS_P2;Temp;Humidity;BMP_temperature;BMP_pressure;BME280_temperature;BME280_humidity;BME280_pressure;Samples;Min_cycle;Max_cycle;Signal;HPM_P1;HPM_P2
2022/09/22 00:01:47;;;;;;;;;;;10.80;51.40;;;6.35;82.14;96020.88;4972049;28;20304;-48
2022/09/22 00:04:13;;;;;;;;;;;10.80;51.50;;;6.30;82.36;96021.59;4954885;28;19917;-46
2022/09/22 00:06:43;;;;;;;;;;;10.80;51.60;;;6.24;82.73;96012.69;4971633;28;20380;-48
2022/09/22 00:09:16;;;;;;;;;;;10.80;51.70;;;6.21;83.32;96020.28;4955196;28;19964;-48
2022/09/22 00:11:50;;;;;;;;;;;10.70;51.80;;;6.16;83.63;96018.31;4970216;28;19918;-50
2022/09/22 00:14:24;;;;;;;;;;;10.70;51.90;;;6.16;83.58;96014.84;4970712;28;26693;-46
2022/09/22 00:17:11;;;;;;;;;;;10.60;52.00;;;6.15;83.98;96010.59;4962276;28;19936;-46
2022/09/22 00:19:38;;;;;;;;;;;10.60;52.10;;;6.13;83.98;96008.19;4954329;28;19978;-48
2022/09/22 00:22:04;;;;;;;;;;;10.60;52.20;;;6.12;83.97;96006.56;4963877;28;19946;-49
2022/09/22 00:24:31;;;;;;;;;;;10.60;52.30;;;6.09;84.09;96009.66;4953900;28;19941;-48
2022/09/22 00:27:00;;;;;;;;;;;10.60;52.40;;;6.08;84.27;96013.34;4952087;28;20003;-49
2022/09/22 00:29:30;;;;;;;;;;;10.60;52.40;;;6.03;84.68;96002.63;4953970;28;19914;-49
2022/09/22 00:31:57;;;;;;;;;;;10.50;52.40;;;6.05;84.49;96008.50;4973855;28;20000;-47
2022/09/22 00:34:26;;;;;;;;;;;10.50;52.40;;;6.05;84.78;96008.50;4971701;28;19929;-48
2022/09/22 00:36:52;;;;;;;;;;;10.50;52.50;;;6.02;84.81;96007.13;4964570;28;19997;-48
2022/09/22 00:39:18;;;;;;;;;;;10.50;52.50;;;6.01;84.84;96004.69;4971015;28;19949;-47
2022/09/22 00:41:51;;;;;;;;;;;10.50;52.50;;;5.99;85.05;96001.47;4950555;28;20424;-52
2022/09/22 00:44:26;;;;;;;;;;;10.50;52.60;;;5.95;85.24;96001.09;4965428;28;19952;-50
2022/09/22 00:47:16;;;;;;;;;;;10.40;52.60;;;5.91;85.24;96005.19;4960199;28;19910;-53
2022/09/22 00:50:20;;;;;;;;;;;10.40;52.60;;;5.83;85.15;95996.78;4969063;28;19941;-52
2022/09/22 00:52:58;;;;;;;;;;;10.30;52.60;;;5.76;85.79;95991.56;4966861;28;19913;-49
2022/09/22 00:55:51;;;;;;;;;;;10.30;52.80;;;5.71;86.38;95994.09;4958252;28;19910;-47
2022/09/22 00:58:45;;;;;;;;;;;10.20;52.80;;;5.66;86.56;95986.81;4954589;28;19909;-47
2022/09/22 01:01:14;;;;;;;;;;;10.20;53.10;;;5.67;87.07;95980.53;4966090;28;19917;-48
2022/09/22 01:03:45;;;;;;;;;;;10.10;53.20;;;5.68;87.12;95984.78;4960042;28;20063;-48
2022/09/22 01:06:19;;;;;;;;;;;10.10;53.30;;;5.64;87.27;95977.50;4964082;28;19909;-50
2022/09/22 01:08:45;;;;;;;;;;;10.20;53.40;;;5.63;87.23;95973.25;4951851;28;19964;-50
2022/09/22 01:11:14;;;;;;;;;;;10.10;53.50;;;5.62;87.40;95974.28;4970871;28;20380;-50
2022/09/22 01:14:24;;;;;;;;;;;10.10;53.40;;;5.61;87.62;95973.50;4954226;28;19921;-51
2022/09/22 01:17:32;;;;;;;;;;;10.10;53.60;;;5.59;87.41;95972.91;4971758;28;19945;-47
2022/09/22 01:20:48;;;;;;;;;;;10.00;53.60;;;5.51;87.76;95976.63;4947966;28;19945;-49
2022/09/22 01:23:38;;;;;;;;;;;10.00;53.70;;;5.40;88.72;95976.59;4971847;28;19932;-49
2022/09/22 01:27:02;;;;;;;;;;;10.00;54.30;;;5.36;88.96;95968.31;4961915;28;20169;-47
2022/09/22 01:30:01;;;;;;;;;;;9.90;53.70;;;5.33;88.71;95972.19;4967874;28;19918;-50
2022/09/22 01:33:06;;;;;;;;;;;9.90;53.80;;;5.30;88.97;95975.28;4934204;28;20387;-50
2022/09/22 01:36:10;;;;;;;;;;;9.90;53.90;;;5.26;89.36;95974.09;4951814;28;20432;-50
2022/09/22 01:39:00;;;;;;;;;;;9.80;54.00;;;5.20;88.82;95976.81;4974851;28;19917;-49
2022/09/22 01:42:22;;;;;;;;;;;9.70;53.90;;;5.06;88.07;95966.41;4956734;28;19997;-45
2022/09/22 01:45:02;;;;;;;;;;;9.70;53.90;;;4.93;88.04;95963.13;4975060;28;19999;-46
2022/09/22 01:47:40;;;;;;;;;;;9.60;54.00;;;4.83;87.94;95963.63;4957244;28;20365;-47
2022/09/22 01:50:43;;;;;;;;;;;9.50;54.00;;;4.70;89.29;95966.38;4973146;28;19925;-47
2022/09/22 01:53:21;;;;;;;;;;;9.40;54.10;;;4.63;90.47;95963.81;4975057;28;19925;-51
2022/09/22 01:55:58;;;;;;;;;;;9.40;54.20;;;4.61;90.76;95955.31;4954845;28;19917;-49
2022/09/22 01:58:43;;;;;;;;;;;9.30;54.30;;;4.57;91.04;95959.38;4958232;28;19916;-52
2022/09/22 02:01:17;;;;;;;;;;;9.20;54.40;;;4.51;92.12;95958.44;4956773;28;19914;-52
2022/09/22 02:04:11;;;;;;;;;;;9.20;54.50;;;4.49;92.93;95949.13;4957794;28;20416;-53
2022/09/22 02:06:57;;;;;;;;;;;9.10;54.60;;;4.52;93.54;95959.25;4956163;28;19949;-50
2022/09/22 02:09:30;;;;;;;;;;;9.10;54.80;;;4.51;93.53;95955.81;4957230;28;19914;-48
2022/09/22 02:12:00;;;;;;;;;;;9.10;54.90;;;4.53;94.11;95951.09;4956153;28;19933;-50
2022/09/22 02:14:38;;;;;;;;;;;9.10;55.00;;;4.59;94.16;95955.50;4976371;23;20024;-44
2022/09/22 02:17:04;;;;;;;;;;;9.10;55.20;;;4.66;93.79;95949.38;4976351;28;20044;-42
2022/09/22 02:19:37;;;;;;;;;;;9.20;55.30;;;4.67;93.73;95954.44;4993124;28;20004;-43
2022/09/22 02:22:05;;;;;;;;;;;9.20;55.40;;;4.68;93.38;95948.13;4976097;28;20367;-42
2022/09/22 02:24:44;;;;;;;;;;;9.20;55.40;;;4.67;93.46;95948.34;4975024;28;20352;-41
2022/09/22 02:27:35;;;;;;;;;;;9.20;55.40;;;4.63;93.59;95956.69;4976513;28;19913;-42
2022/09/22 02:30:19;;;;;;;;;;;9.20;55.40;;;4.60;93.37;95953.69;4956506;28;20292;-42
2022/09/22 02:32:55;;;;;;;;;;;9.20;55.40;;;4.58;93.85;95948.63;4976581;28;20391;-42
2022/09/22 02:35:28;;;;;;;;;;;9.20;55.50;;;4.57;93.67;95943.56;4959252;28;20380;-42
2022/09/22 02:38:18;;;;;;;;;;;9.20;55.50;;;4.54;93.90;95941.34;4976484;28;19959;-42
2022/09/22 02:41:25;;;;;;;;;;;9.10;55.50;;;4.57;94.44;95938.28;4960695;28;20386;-41
2022/09/22 02:44:07;;;;;;;;;;;9.10;55.60;;;4.61;94.27;95944.75;4993419;28;20004;-44
2022/09/22 02:46:45;;;;;;;;;;;9.20;55.80;;;4.62;94.20;95936.63;4993345;28;19917;-42
2022/09/22 02:49:18;;;;;;;;;;;9.10;55.80;;;4.64;94.02;95942.50;4949103;28;19917;-44
2022/09/22 02:51:48;;;;;;;;;;;9.20;55.90;;;4.62;94.00;95939.25;4940926;28;19910;-44
2022/09/22 02:54:14;;;;;;;;;;;9.20;55.90;;;4.62;93.98;95939.25;4963168;28;20330;-43
2022/09/22 02:56:49;;;;;;;;;;;9.20;55.90;;;4.64;93.70;95942.50;4954844;28;19909;-43
2022/09/22 02:59:15;;;;;;;;;;;9.20;55.90;;;4.64;93.96;95944.31;4956359;28;19910;-49
2022/09/22 03:01:44;;;;;;;;;;;9.20;56.00;;;4.67;93.79;95945.69;4959419;28;19909;-44
2022/09/22 03:04:18;;;;;;;;;;;9.20;56.00;;;4.69;93.56;95946.28;4992689;28;19919;-43
2022/09/22 03:06:44;;;;;;;;;;;9.20;56.10;;;4.70;93.75;95951.38;4992418;28;19909;-42
2022/09/22 03:09:15;;;;;;;;;;;9.20;56.10;;;4.71;92.63;95946.91;4992792;28;19913;-42
2022/09/22 03:11:41;;;;;;;;;;;9.20;56.10;;;4.63;93.43;95947.97;4992067;28;19921;-42
2022/09/22 03:14:10;;;;;;;;;;;9.20;56.10;;;4.60;93.08;95948.41;4992096;28;19925;-42
2022/09/22 03:16:36;;;;;;;;;;;9.20;56.10;;;4.56;93.85;95949.88;4975256;28;19914;-42
2022/09/22 03:19:01;;;;;;;;;;;9.10;56.10;;;4.53;93.60;95947.66;4987365;28;20292;-42
2022/09/22 03:21:27;;;;;;;;;;;9.10;56.10;;;4.47;93.74;95949.34;4958693;28;19909;-42
2022/09/22 03:23:53;;;;;;;;;;;9.10;56.10;;;4.43;93.57;95952.63;4978971;28;19955;-42
2022/09/22 03:26:19;;;;;;;;;;;9.10;56.10;;;4.37;93.74;95956.94;4964454;28;19924;-44
2022/09/22 03:28:47;;;;;;;;;;;9.10;56.20;;;4.34;94.27;95955.53;4955828;28;19922;-47
2022/09/22 03:31:19;;;;;;;;;;;9.00;56.20;;;4.32;95.05;95951.50;4976640;28;19980;-43
2022/09/22 03:33:50;;;;;;;;;;;9.00;56.30;;;4.33;95.60;95953.94;4955669;28;19933;-42
2022/09/22 03:36:18;;;;;;;;;;;9.00;56.40;;;4.35;95.96;95966.88;4946487;28;19910;-47
2022/09/22 03:38:47;;;;;;;;;;;9.00;56.50;;;4.36;95.59;95956.13;4976001;28;20387;-42
2022/09/22 03:41:12;;;;;;;;;;;9.00;56.60;;;4.39;95.18;95960.19;4974885;28;19909;-43
2022/09/22 03:43:47;;;;;;;;;;;9.00;56.60;;;4.40;95.65;95964.41;4990730;28;19929;-45
2022/09/22 03:46:13;;;;;;;;;;;9.00;56.70;;;4.41;95.27;95966.03;4975020;28;20319;-42
2022/09/22 03:48:47;;;;;;;;;;;9.00;56.80;;;4.42;95.40;95967.66;4990845;28;20390;-45
2022/09/22 03:51:19;;;;;;;;;;;9.00;56.80;;;4.45;95.33;95969.88;4989797;28;19964;-43
2022/09/22 03:53:45;;;;;;;;;;;9.00;56.90;;;4.50;95.30;95969.22;4973203;28;20287;-45
2022/09/22 03:56:15;;;;;;;;;;;9.00;57.00;;;4.53;95.10;95968.78;4958347;28;19917;-43
2022/09/22 03:58:42;;;;;;;;;;;9.00;57.10;;;4.54;94.88;95971.19;4974952;28;20008;-43
2022/09/22 04:01:10;;;;;;;;;;;9.00;57.10;;;4.57;94.78;95964.66;4972734;28;19945;-41
2022/09/22 04:03:37;;;;;;;;;;;9.10;57.20;;;4.55;94.46;95969.38;4974117;28;19916;-41
2022/09/22 04:06:06;;;;;;;;;;;9.10;57.20;;;4.57;94.55;95977.84;4956891;28;20279;-41
2022/09/22 04:08:47;;;;;;;;;;;9.10;57.20;;;4.57;94.33;95975.22;4974716;28;19917;-41
2022/09/22 04:11:13;;;;;;;;;;;9.10;57.30;;;4.55;94.42;95969.38;4967852;28;20012;-41
2022/09/22 04:13:50;;;;;;;;;;;9.10;57.30;;;4.53;94.46;95971.41;4972518;28;20080;-42
2022/09/22 04:16:16;;;;;;;;;;;9.10;57.30;;;4.51;94.17;95966.38;4974300;28;20406;-41
2022/09/22 04:18:43;;;;;;;;;;;9.10;57.30;;;4.51;94.41;95963.72;4952353;28;20016;-43
2022/09/22 04:21:09;;;;;;;;;;;9.10;57.30;;;4.48;94.15;95968.59;4971967;28;20028;-42
2022/09/22 04:23:50;;;;;;;;;;;9.00;57.20;;;4.45;94.33;95982.22;4955931;28;19912;-42
2022/09/22 04:26:18;;;;;;;;;;;9.00;57.20;;;4.41;94.70;95979.22;4974320;28;20399;-49
2022/09/22 04:28:44;;;;;;;;;;;9.00;57.30;;;4.37;94.55;95978.84;4974288;28;19944;-43
2022/09/22 04:31:10;;;;;;;;;;;9.00;57.30;;;4.35;94.75;95982.72;4976094;28;19956;-45
2022/09/22 04:33:45;;;;;;;;;;;8.90;57.40;;;4.32;94.67;95976.03;4971961;28;19960;-41
2022/09/22 04:36:18;;;;;;;;;;;8.90;57.40;;;4.30;94.82;95970.19;4958530;28;20006;-46
2022/09/22 04:38:46;;;;;;;;;;;8.90;57.40;;;4.28;94.68;95977.50;4972335;28;19972;-43
2022/09/22 04:41:19;;;;;;;;;;;8.90;57.40;;;4.26;94.69;95976.94;4971896;28;19956;-43
2022/09/22 04:43:44;;;;;;;;;;;8.90;57.50;;;4.23;95.00;95976.53;4988987;28;19913;-48
2022/09/22 04:46:10;;;;;;;;;;;8.90;57.50;;;4.18;95.04;95977.19;4990379;28;19910;-43
2022/09/22 04:48:36;;;;;;;;;;;8.80;57.40;;;4.15;94.73;95985.50;4990093;28;19924;-42
2022/09/22 04:51:07;;;;;;;;;;;8.80;57.50;;;4.08;95.07;95988.19;4957070;28;19925;-42
2022/09/22 04:53:39;;;;;;;;;;;8.70;57.50;;;4.05;95.51;95988.63;4972865;28;19917;-46
2022/09/22 04:56:05;;;;;;;;;;;8.70;57.50;;;4.04;95.84;95988.81;4973013;28;19916;-44
2022/09/22 04:58:37;;;;;;;;;;;8.70;57.60;;;4.00;95.74;95985.81;4972100;28;19909;-42
2022/09/22 05:01:05;;;;;;;;;;;8.70;57.60;;;3.98;96.26;95987.88;4985011;28;19972;-46
2022/09/22 05:03:37;;;;;;;;;;;8.70;57.70;;;4.00;96.60;95991.09;4973282;28;19916;-44
2022/09/22 05:06:05;;;;;;;;;;;8.60;57.70;;;3.97;96.95;95983.59;4990124;28;19963;-44
2022/09/22 05:08:30;;;;;;;;;;;8.60;57.80;;;4.00;97.75;95985.00;4958322;28;19948;-47
2022/09/22 05:11:08;;;;;;;;;;;8.60;57.80;;;4.01;98.05;95987.44;4975883;28;20396;-42
2022/09/22 05:13:39;;;;;;;;;;;8.60;57.90;;;4.02;97.67;95993.53;4960524;28;19924;-42
2022/09/22 05:16:11;;;;;;;;;;;8.60;58.60;;;4.04;97.98;95994.94;4995091;28;19913;-44
2022/09/22 05:18:43;;;;;;;;;;;8.60;58.00;;;4.06;98.44;95998.13;4986748;28;19913;-42
2022/09/22 05:21:17;;;;;;;;;;;8.60;58.00;;;4.06;98.38;95994.69;4977460;28;20299;-43
2022/09/22 05:23:44;;;;;;;;;;;8.60;58.10;;;4.07;98.36;95997.13;4993514;28;19996;-42
2022/09/22 05:26:16;;;;;;;;;;;8.70;58.10;;;4.08;98.32;95996.13;4964043;28;20376;-45
2022/09/22 05:28:42;;;;;;;;;;;8.70;58.20;;;4.08;99.09;96004.03;4958605;28;19913;-43
2022/09/22 05:31:08;;;;;;;;;;;8.70;58.20;;;4.13;99.42;96008.63;4988960;28;20023;-44
2022/09/22 05:33:37;;;;;;;;;;;8.70;58.20;;;4.15;99.09;96007.41;4994027;28;19945;-42
2022/09/22 05:36:03;;;;;;;;;;;8.70;58.20;;;4.15;98.28;96007.41;4975641;28;19909;-43
2022/09/22 05:38:28;;;;;;;;;;;8.80;58.20;;;4.12;98.91;96009.66;4958045;28;20277;-44
2022/09/22 05:41:00;;;;;;;;;;;8.80;58.20;;;4.15;99.20;96012.69;4975042;28;19913;-44
2022/09/22 05:43:26;;;;;;;;;;;8.80;58.20;;;4.14;98.59;96012.91;4990849;28;19961;-43
2022/09/22 05:45:52;;;;;;;;;;;8.80;58.20;;;4.12;98.25;96007.84;4940081;28;21452;-41
2022/09/22 05:48:17;;;;;;;;;;;8.80;58.20;;;4.08;97.97;96006.66;4992671;28;20402;-45
2022/09/22 05:50:46;;;;;;;;;;;8.80;58.20;;;4.05;98.03;96007.09;4994362;28;19916;-44
2022/09/22 05:53:15;;;;;;;;;;;8.80;58.20;;;4.05;98.01;96004.44;4976809;28;19909;-43
2022/09/22 05:55:42;;;;;;;;;;;8.80;58.20;;;4.02;97.29;96004.88;4992997;28;19910;-42
2022/09/22 05:58:15;;;;;;;;;;;8.80;58.20;;;3.99;97.32;96005.28;4960689;28;19921;-45
2022/09/22 06:00:41;;;;;;;;;;;8.80;58.20;;;4.02;98.30;96004.88;4972740;28;19910;-42
2022/09/22 06:03:07;;;;;;;;;;;8.80;58.20;;;4.05;98.83;96004.44;4956814;28;20633;-43
2022/09/22 06:05:39;;;;;;;;;;;8.90;58.30;;;4.15;100.00;96009.25;4977257;28;19980;-42
2022/09/22 06:08:06;;;;;;;;;;;8.90;58.40;;;4.27;100.00;96006.72;4982741;28;20008;-43
2022/09/22 06:10:37;;;;;;;;;;;8.90;58.50;;;4.36;100.00;96003.63;4974175;28;20036;-45
2022/09/22 06:13:08;;;;;;;;;;;9.00;58.70;;;4.47;100.00;96004.72;4975100;28;19956;-43
2022/09/22 06:15:35;;;;;;;;;;;9.10;58.80;;;4.58;100.00;96005.88;4967628;28;20431;-42
2022/09/22 06:18:19;;;;;;;;;;;9.20;59.00;;;4.68;100.00;96005.38;4974318;28;19913;-45
2022/09/22 06:20:45;;;;;;;;;;;9.30;59.00;;;4.76;100.00;96007.72;4965050;28;19910;-44
2022/09/22 06:23:14;;;;;;;;;;;9.30;59.00;;;4.84;100.00;96012.75;4956480;28;19916;-42
2022/09/22 06:25:45;;;;;;;;;;;9.40;59.10;;;4.94;100.00;96004.31;4982908;28;19920;-44
2022/09/22 06:28:23;;;;;;;;;;;9.50;59.10;;;5.05;100.00;96011.53;4990695;28;19941;-42
2022/09/22 06:30:50;;;;;;;;;;;9.60;59.10;;;5.13;100.00;96000.66;4966299;28;20011;-48
2022/09/22 06:33:22;;;;;;;;;;;9.70;59.20;;;5.23;100.00;96003.63;4975277;28;20400;-43
2022/09/22 06:35:48;;;;;;;;;;;9.80;59.20;;;5.33;100.00;96008.38;4959519;28;19954;-47
2022/09/22 06:38:20;;;;;;;;;;;10.00;59.30;;;5.44;100.00;96002.34;4941711;28;20331;-43
2022/09/22 06:40:50;;;;;;;;;;;10.00;59.20;;;5.57;100.00;96002.19;4974249;28;19963;-43
2022/09/22 06:43:22;;;;;;;;;;;10.20;59.20;;;5.73;100.00;96005.22;4960947;28;20008;-43
2022/09/22 06:45:51;;;;;;;;;;;10.40;59.20;;;5.99;99.93;96002.28;4973880;28;19963;-48
2022/09/22 06:48:22;;;;;;;;;;;10.80;59.10;;;6.37;98.84;96011.69;4963474;28;19915;-43
2022/09/22 06:50:52;;;;;;;;;;;11.30;59.20;;;6.70;96.86;96003.19;4975495;28;19913;-45
2022/09/22 06:53:23;;;;;;;;;;;11.70;58.70;;;7.03;94.64;96001.84;4975272;28;19910;-44
2022/09/22 06:55:48;;;;;;;;;;;12.20;58.50;;;7.31;92.44;96001.09;4959226;28;19916;-45
2022/09/22 06:58:15;;;;;;;;;;;12.60;58.20;;;7.62;90.95;96002.53;4975878;28;19913;-45
2022/09/22 07:00:42;;;;;;;;;;;13.00;58.00;;;7.96;88.35;95997.34;4939116;28;19910;-45
2022/09/22 07:03:25;;;;;;;;;;;13.40;57.70;;;8.27;86.75;96001.34;4965445;28;19962;-44
2022/09/22 07:06:19;;;;;;;;;;;13.80;57.30;;;8.60;84.59;95998.97;4976888;28;19916;-45
2022/09/22 07:08:48;;;;;;;;;;;14.30;56.90;;;8.86;83.33;96003.63;4982288;28;19913;-45
2022/09/22 07:11:22;;;;;;;;;;;14.60;56.50;;;9.12;81.87;95999.50;4975394;28;19909;-45
2022/09/22 07:13:52;;;;;;;;;;;15.00;56.20;;;9.32;80.55;96003.47;4954827;28;20400;-50
2022/09/22 07:16:21;;;;;;;;;;;15.30;55.90;;;9.63;79.54;95999.34;4956435;28;19917;-49
2022/09/22 07:18:54;;;;;;;;;;;15.60;55.50;;;9.88;78.44;95994.31;4948402;28;19910;-43
2022/09/22 07:21:28;;;;;;;;;;;15.90;55.30;;;10.19;76.93;96002.59;4973165;28;20400;-44
2022/09/22 07:23:56;;;;;;;;;;;16.20;54.90;;;10.51;75.46;96000.00;4955104;28;20261;-45
2022/09/22 07:26:36;;;;;;;;;;;16.60;54.60;;;10.95;74.26;96007.00;4973272;28;19909;-46
2022/09/22 07:29:07;;;;;;;;;;;16.90;54.40;;;11.28;71.52;96000.53;4956031;28;20281;-43
2022/09/22 07:31:35;;;;;;;;;;;17.30;54.10;;;11.45;70.22;95997.69;4966976;28;19949;-44
2022/09/22 07:34:01;;;;;;;;;;;17.60;53.70;;;11.72;69.30;96001.03;4952181;28;20029;-47
2022/09/22 07:36:33;;;;;;;;;;;17.90;53.30;;;12.00;68.99;96007.00;4943786;28;19909;-44
2022/09/22 07:39:06;;;;;;;;;;;18.20;52.90;;;12.36;66.81;96007.09;4955823;28;19910;-43
2022/09/22 07:41:40;;;;;;;;;;;18.40;52.70;;;12.47;65.98;96006.00;4970894;28;19910;-45
2022/09/22 07:46:52;;;;;;;;;;;19.00;51.80;;;12.74;64.32;96003.09;4953299;28;19948;-44
2022/09/22 07:49:21;;;;;;;;;;;19.20;51.30;;;12.77;64.55;96009.78;4964415;28;19914;-49
2022/09/22 07:51:53;;;;;;;;;;;19.30;50.90;;;12.98;63.93;96006.03;4953747;28;19925;-44
2022/09/22 07:54:20;;;;;;;;;;;19.50;50.60;;;13.17;63.41;96009.75;4954881;28;19910;-44
2022/09/22 07:56:57;;;;;;;;;;;19.70;50.40;;;13.35;61.93;96018.28;4952878;28;19957;-44
2022/09/22 07:59:23;;;;;;;;;;;19.90;50.10;;;13.47;61.72;96008.09;4958926;28;19909;-50
2022/09/22 08:01:51;;;;;;;;;;;20.10;49.80;;;13.55;60.91;96006.75;4941525;28;20388;-45
2022/09/22 08:04:21;;;;;;;;;;;20.30;49.60;;;13.77;60.23;96009.88;4951935;28;19910;-44
2022/09/22 08:06:51;;;;;;;;;;;20.40;49.20;;;14.02;59.58;96005.47;4962661;28;19916;-43
2022/09/22 08:09:18;;;;;;;;;;;20.50;48.90;;;14.34;58.70;96005.03;4955302;28;19914;-51
2022/09/22 08:11:47;;;;;;;;;;;20.80;48.80;;;14.62;58.11;96008.09;4936568;28;20308;-44
2022/09/22 08:14:17;;;;;;;;;;;21.00;48.60;;;14.98;56.25;96009.41;4955378;28;19918;-47
2022/09/22 08:16:45;;;;;;;;;;;21.20;48.50;;;15.30;55.35;96008.03;4985751;28;19956;-47
2022/09/22 08:19:13;;;;;;;;;;;21.50;48.30;;;15.41;55.22;96001.44;4938506;28;20395;-47
2022/09/22 08:21:45;;;;;;;;;;;21.80;48.00;;;15.38;55.14;96003.91;4954763;28;19913;-52
2022/09/22 08:24:20;;;;;;;;;;;21.90;47.50;;;15.57;54.75;96009.34;4944632;28;20334;-47
2022/09/22 08:26:46;;;;;;;;;;;22.20;47.20;;;15.72;55.15;96010.00;4959276;28;19933;-48
2022/09/22 08:29:18;;;;;;;;;;;22.40;46.70;;;15.92;54.12;96002.81;4991667;28;20291;-48
2022/09/22 08:31:50;;;;;;;;;;;22.60;46.50;;;16.13;53.97;95997.94;4990398;28;19996;-55
2022/09/22 08:34:20;;;;;;;;;;;22.70;46.20;;;16.14;53.40;95999.56;4991263;28;19913;-48
2022/09/22 08:36:47;;;;;;;;;;;22.90;45.90;;;16.15;54.15;95998.47;4990203;28;20594;-50
2022/09/22 08:39:14;;;;;;;;;;;23.00;45.50;;;16.15;54.76;96001.16;4974413;28;20383;-53
2022/09/22 08:42:17;;;;;;;;;;;23.20;45.30;;;16.41;53.62;96005.06;4956820;28;19909;-54
2022/09/22 08:45:09;;;;;;;;;;;23.30;45.20;;;16.33;53.55;96007.63;4972944;28;19910;-53
2022/09/22 08:53:50;;;;;;;;;;;23.70;44.20;;;16.22;53.58;95996.22;4977758;28;19917;-50
2022/09/22 08:56:32;;;;;;;;;;;23.80;43.80;;;15.89;53.66;96003.38;4948703;28;20340;-47
2022/09/22 08:59:09;;;;;;;;;;;23.80;43.40;;;15.66;54.36;96004.94;4958789;28;20365;-49
2022/09/22 09:01:56;;;;;;;;;;;23.80;43.10;;;15.28;55.39;96016.34;4975635;28;19963;-51
2022/09/22 09:05:17;;;;;;;;;;;23.70;42.80;;;15.13;56.48;96016.50;4972754;28;19917;-49
2022/09/22 09:08:35;;;;;;;;;;;23.60;42.60;;;14.49;58.45;96009.47;4971671;28;19934;-47
2022/09/22 09:11:28;;;;;;;;;;;23.40;42.50;;;13.99;58.75;96011.38;4978736;28;20011;-46
2022/09/22 09:14:08;;;;;;;;;;;23.20;42.30;;;14.00;60.16;96021.81;4949231;28;19925;-48
2022/09/22 09:16:51;;;;;;;;;;;23.00;42.20;;;14.30;59.54;96012.00;4963547;28;20328;-48
2022/09/22 09:19:43;;;;;;;;;;;22.90;42.40;;;14.66;58.80;96011.78;4971135;28;20004;-45
2022/09/22 09:22:24;;;;;;;;;;;22.80;42.50;;;14.59;57.75;96012.13;4960354;28;19919;-47
2022/09/22 09:25:08;;;;;;;;;;;22.80;42.60;;;14.57;57.98;96004.38;4951517;28;19941;-49
2022/09/22 09:27:40;;;;;;;;;;;22.80;42.50;;;14.59;57.77;96014.78;4965939;28;19917;-49
2022/09/22 09:30:20;;;;;;;;;;;22.80;42.30;;;14.64;58.19;96016.66;4966560;28;19918;-50
2022/09/22 09:32:59;;;;;;;;;;;22.80;42.30;;;14.77;58.03;96013.34;4966706;28;19920;-50
2022/09/22 09:35:49;;;;;;;;;;;22.90;42.30;;;14.91;57.20;96013.47;4969430;28;19944;-48
2022/09/22 09:38:40;;;;;;;;;;;22.90;42.20;;;14.77;58.07;96013.34;4982433;28;20021;-50
2022/09/22 09:41:22;;;;;;;;;;;22.90;42.00;;;14.86;57.70;96014.34;4964238;28;19967;-50
2022/09/22 09:43:52;;;;;;;;;;;22.90;41.80;;;14.97;57.85;96010.47;4955933;28;20352;-48
2022/09/22 09:47:07;;;;;;;;;;;23.00;41.80;;;15.30;56.72;96008.03;4971430;28;19909;-48
2022/09/22 09:49:42;;;;;;;;;;;23.10;41.80;;;15.41;56.41;96003.34;4969570;28;19936;-50
2022/09/22 09:52:12;;;;;;;;;;;23.20;41.70;;;15.35;55.91;95997.22;4957842;28;20012;-49
2022/09/22 09:54:42;;;;;;;;;;;23.30;41.50;;;15.46;55.75;95989.88;4984645;28;19949;-50
2022/09/22 09:57:22;;;;;;;;;;;23.30;41.40;;;15.78;54.81;95991.94;4957844;28;20008;-50
2022/09/22 10:00:35;;;;;;;;;;;23.50;41.40;;;15.95;53.79;95986.09;4959406;28;19917;-47
2022/09/22 10:03:40;;;;;;;;;;;23.70;41.30;;;16.22;53.34;95990.84;4978969;28;20334;-50
2022/09/22 10:06:09;;;;;;;;;;;23.90;41.20;;;16.46;52.42;95987.28;4978656;28;19921;-49
2022/09/22 10:08:55;;;;;;;;;;;24.00;41.00;;;16.21;53.72;95983.06;4961929;28;19910;-46
2022/09/22 10:11:34;;;;;;;;;;;24.20;40.80;;;16.52;53.11;95983.44;4974104;28;19910;-51
2022/09/22 10:14:00;;;;;;;;;;;24.40;40.80;;;16.94;51.75;95979.81;4973954;28;19924;-48
2022/09/22 10:16:32;;;;;;;;;;;24.60;40.80;;;16.79;51.93;95977.38;4974672;28;19920;-48
2022/09/22 10:18:57;;;;;;;;;;;24.80;40.60;;;17.15;51.58;95982.16;4959654;28;19964;-46
2022/09/22 10:21:25;;;;;;;;;;;24.90;40.50;;;17.26;51.71;95981.66;4980290;28;19909;-51
2022/09/22 10:23:55;;;;;;;;;;;25.10;40.30;;;17.57;50.40;95970.31;4959138;28;19909;-48
2022/09/22 10:26:31;;;;;;;;;;;25.20;40.20;;;17.70;49.32;95972.19;4975776;28;19914;-47
2022/09/22 10:29:11;;;;;;;;;;;25.50;40.00;;;18.02;49.87;95962.44;4974117;28;19917;-46
2022/09/22 10:31:40;;;;;;;;;;;25.70;39.80;;;18.31;49.33;95958.56;4986456;28;19910;-47
2022/09/22 10:34:55;;;;;;;;;;;25.90;39.70;;;18.62;48.02;95961.34;4957046;28;20008;-47
2022/09/22 10:37:28;;;;;;;;;;;26.10;39.50;;;19.07;46.52;95955.94;4988844;28;19917;-50
2022/09/22 10:40:02;;;;;;;;;;;26.50;39.50;;;19.24;46.24;95952.53;4976208;28;19921;-54
2022/09/22 10:42:44;;;;;;;;;;;26.80;39.30;;;19.01;46.83;95951.78;4958770;28;20004;-49
2022/09/22 10:45:15;;;;;;;;;;;27.10;39.60;;;19.11;45.75;95949.59;4976592;28;20063;-51
2022/09/22 10:48:01;;;;;;;;;;;27.20;38.60;;;19.01;45.83;95957.97;4992041;28;19909;-48
2022/09/22 10:50:59;;;;;;;;;;;27.30;38.30;;;19.29;45.52;95952.41;4960457;28;19913;-49
2022/09/22 10:53:58;;;;;;;;;;;27.50;38.20;;;19.64;44.51;95956.84;4982657;28;19909;-47
2022/09/22 10:56:42;;;;;;;;;;;27.70;38.00;;;19.83;44.80;95945.78;4956425;28;20059;-49
2022/09/22 10:59:41;;;;;;;;;;;27.80;37.90;;;19.96;43.93;95952.19;4957327;28;20424;-50
2022/09/22 11:02:33;;;;;;;;;;;28.00;37.70;;;20.01;44.23;95953.94;4989071;28;19957;-52
2022/09/22 11:05:14;;;;;;;;;;;28.10;37.50;;;19.92;44.62;95948.50;4984358;28;20394;-48
2022/09/22 11:15:34;;;;;;;;;;;28.70;37.00;;;20.76;42.21;95947.28;4985900;28;20407;-49
2022/09/22 11:18:23;;;;;;;;;;;28.90;36.80;;;21.07;41.47;95945.47;4967021;28;19909;-48
2022/09/22 11:21:11;;;;;;;;;;;29.10;36.70;;;20.97;41.36;95942.00;4982161;28;20352;-49
2022/09/22 11:23:59;;;;;;;;;;;29.30;36.30;;;21.05;41.29;95945.78;4973479;28;19949;-47
2022/09/22 11:26:55;;;;;;;;;;;29.40;36.10;;;21.20;40.84;95942.56;4959234;28;19917;-49
2022/09/22 11:30:20;;;;;;;;;;;29.60;35.90;;;20.96;41.12;95939.59;4992513;28;19924;-50
2022/09/22 11:33:10;;;;;;;;;;;29.80;35.60;;;20.54;43.06;95942.84;4973367;28;19920;-48
2022/09/22 11:35:48;;;;;;;;;;;29.80;35.30;;;20.75;42.49;95934.09;4973696;28;20299;-48
2022/09/22 11:38:58;;;;;;;;;;;29.80;35.30;;;19.84;43.82;95941.97;4979707;28;19941;-47
2022/09/22 11:41:44;;;;;;;;;;;29.80;35.30;;;20.34;43.33;95941.56;4975054;28;19996;-47
2022/09/22 11:44:42;;;;;;;;;;;29.80;35.20;;;20.47;44.69;95925.47;4987051;28;20007;-50
2022/09/22 11:47:42;;;;;;;;;;;29.70;35.20;;;20.36;43.11;95927.69;4992386;28;19916;-47
2022/09/22 11:50:42;;;;;;;;;;;29.80;35.20;;;20.59;41.61;95924.84;4972252;28;20341;-49
2022/09/22 11:53:43;;;;;;;;;;;29.80;35.10;;;20.74;42.45;95919.72;4964134;28;19913;-50
2022/09/22 11:56:47;;;;;;;;;;;29.90;35.10;;;20.76;41.81;95916.72;4983656;28;19921;-52
2022/09/22 11:59:34;;;;;;;;;;;30.00;34.90;;;20.97;42.50;95923.03;4970302;28;20047;-52
2022/09/22 12:02:30;;;;;;;;;;;30.10;34.80;;;20.95;41.09;95916.34;4978391;28;20288;-50
2022/09/22 12:05:20;;;;;;;;;;;30.20;34.70;;;20.95;41.68;95909.03;4952097;28;19914;-50
2022/09/22 12:08:06;;;;;;;;;;;30.20;34.50;;;21.05;41.32;95916.00;4989445;28;20000;-49
2022/09/22 12:10:43;;;;;;;;;;;30.30;34.40;;;21.05;40.93;95915.22;4991645;28;19917;-52
2022/09/22 12:13:20;;;;;;;;;;;30.40;34.30;;;21.30;40.60;95914.31;4960533;28;19948;-55
2022/09/22 12:16:18;;;;;;;;;;;30.40;34.20;;;21.20;40.10;95909.25;4991360;28;19929;-51
2022/09/22 12:18:58;;;;;;;;;;;30.50;34.10;;;21.05;39.45;95904.38;4991135;28;19997;-48
2022/09/22 12:22:24;;;;;;;;;;;30.50;33.90;;;21.48;39.60;95899.59;4991289;28;20432;-47
2022/09/22 12:24:50;;;;;;;;;;;30.60;33.90;;;21.80;38.99;95896.56;4987746;28;20377;-46
2022/09/22 12:27:24;;;;;;;;;;;30.80;33.80;;;21.86;38.02;95889.81;4982510;28;19959;-50